Zea Bremen — D5DR2 — position and weather

sailwx.info

Track history (hours):
 
Tides and Currents Weather Stations Pressure Air Temp Water Temp Dewpoint Dewpoint Depression Visibility Wind Speed Wind Dir Waves Ship Positions

Zea Bremen

Last reported at 2018-Jun-14 22:17 UTC. Time now 2018-Jun-18 00:19 UTC.
Position N 31°15' E 032°21'.

Length 157 m; draft 7.4 m.

Type: Ship (hazmat cat B). MMSI: 636018211.

Date/timePositionNaut miles runAvg speedWind from/ knotsBaromVisibWave heightAir tempDewpointWater temp
2018-Jun-14 22:17N 31°15' E 032°21'311.6
2018-Jun-14 22:00N 31°18' E 032°22'6 2.2
2018-Jun-14 19:16N 31°22' E 032°17'6 8.1
2018-Jun-14 18:28N 31°29' E 032°16'2112.8
2018-Jun-14 16:52N 31°49' E 032°15'512.7
2018-Jun-14 16:31N 31°54' E 032°15'65 3.1
2018-Jun-13 19:56N 32°56' E 031°52'20 9.8
2018-Jun-13 17:56N 33°15' E 031°49'  
2018-Jun-10 09:11N 36°06' E 030°23'  
2018-Jun-07 06:00N 44°23' E 013°07'2114.7
2018-Jun-07 04:36N 44°43' E 012°59'114.4
2018-Jun-07 04:30N 44°44' E 012°58'714.6
2018-Jun-07 04:01N 44°51' E 012°53'814.6
2018-Jun-07 03:30N 44°58' E 012°49'714.6
2018-Jun-07 03:00N 45°04' E 012°44'714.3
2018-Jun-07 02:30N 45°09' E 012°36'714.3
2018-Jun-07 02:00N 45°14' E 012°30'714.2
2018-Jun-07 01:30N 45°19' E 012°23'5 9.8
2018-Jun-07 01:00N 45°21' E 012°16'4 8.4
2018-Jun-07 00:29N 45°25' E 012°16'2 4.4
2018-Jun-07 00:00N 45°27' E 012°15'1 0.1
2018-Jun-06 18:11N 45°27' E 012°14'0 0.0
2018-Jun-06 17:53N 45°27' E 012°14'0 0.0
2018-Jun-05 21:09N 45°27' E 012°14'0 2.5
2018-Jun-05 20:59N 45°27' E 012°15'2 4.6
2018-Jun-05 20:27N 45°25' E 012°16'4 8.4
2018-Jun-05 20:00N 45°21' E 012°16'5 9.9
2018-Jun-05 19:30N 45°20' E 012°22'3 6.8
2018-Jun-05 19:00N 45°20' E 012°27'1 2.9
2018-Jun-05 18:29N 45°21' E 012°28'0 0.1
2018-Jun-05 17:59N 45°21' E 012°28'0 0.0
2018-Jun-05 17:29N 45°21' E 012°28'0 0.2
2018-Jun-05 16:59N 45°21' E 012°28'0 0.0
2018-Jun-05 16:26N 45°21' E 012°28'0 0.2
2018-Jun-05 15:59N 45°21' E 012°28'0 0.2
2018-Jun-05 15:29N 45°21' E 012°28'0 0.1
2018-Jun-05 14:59N 45°21' E 012°28'0 0.0
2018-Jun-05 14:29N 45°21' E 012°28'0 0.0
2018-Jun-05 13:59N 45°21' E 012°28'0 0.0
2018-Jun-05 13:20N 45°21' E 012°28'0 0.0
2018-Jun-05 12:56N 45°21' E 012°28'0 0.0
2018-Jun-05 12:23N 45°21' E 012°28'0 0.0
2018-Jun-05 11:59N 45°21' E 012°28'0 0.1
2018-Jun-05 11:23N 45°21' E 012°28'0 0.0
2018-Jun-05 10:59N 45°21' E 012°28'0 0.0
2018-Jun-05 10:29N 45°21' E 012°28'0 0.0
2018-Jun-05 09:59N 45°21' E 012°28'0 0.0
2018-Jun-05 09:29N 45°21' E 012°28'0 0.0
2018-Jun-05 08:56N 45°21' E 012°28'0 0.2
2018-Jun-05 08:26N 45°21' E 012°28'0 0.2
2018-Jun-05 08:00N 45°21' E 012°28'3 5.7
2018-Jun-05 07:30N 45°18' E 012°29'5 9.7
2018-Jun-05 07:00N 45°15' E 012°34'611.8
2018-Jun-05 06:30N 45°12' E 012°41'611.9
2018-Jun-05 06:00N 45°08' E 012°47'611.9
2018-Jun-05 05:29N 45°02' E 012°51'612.0
2018-Jun-05 05:00N 44°57' E 012°54'611.8
2018-Jun-05 04:30N 44°52' E 012°58'611.9
2018-Jun-05 04:00N 44°46' E 013°00'711.9
2018-Jun-05 03:25N 44°39' E 013°04'410.7
2018-Jun-05 03:00N 44°35' E 013°06'510.4
2018-Jun-05 02:30N 44°30' E 013°08'510.2
2018-Jun-05 01:59N 44°26' E 013°11'510.3
2018-Jun-05 01:29N 44°21' E 013°14'  
Track history (hours):
 
Tides and Currents Weather Stations Pressure Air Temp Water Temp Dewpoint Dewpoint Depression Visibility Wind Speed Wind Dir Waves Ship Positions

Zea Bremen

Last reported at 2018-Jun-14 22:17 UTC. Time now 2018-Jun-18 00:19 UTC.
Position N 31°15' E 032°21'.

Length 157 m; draft 7.4 m.

Type: Ship (hazmat cat B). MMSI: 636018211.

Date/timePositionNaut miles runAvg speedWind from/ knotsBaromVisibWave heightAir tempDewpointWater temp
2018-Jun-14 22:17N 31°15' E 032°21'311.6
2018-Jun-14 22:00N 31°18' E 032°22'6 2.2
2018-Jun-14 19:16N 31°22' E 032°17'6 8.1
2018-Jun-14 18:28N 31°29' E 032°16'2112.8
2018-Jun-14 16:52N 31°49' E 032°15'512.7
2018-Jun-14 16:31N 31°54' E 032°15'65 3.1
2018-Jun-13 19:56N 32°56' E 031°52'20 9.8
2018-Jun-13 17:56N 33°15' E 031°49'  
2018-Jun-10 09:11N 36°06' E 030°23'  
2018-Jun-07 06:00N 44°23' E 013°07'2114.7
2018-Jun-07 04:36N 44°43' E 012°59'114.4
2018-Jun-07 04:30N 44°44' E 012°58'714.6
2018-Jun-07 04:01N 44°51' E 012°53'814.6
2018-Jun-07 03:30N 44°58' E 012°49'714.6
2018-Jun-07 03:00N 45°04' E 012°44'714.3
2018-Jun-07 02:30N 45°09' E 012°36'714.3
2018-Jun-07 02:00N 45°14' E 012°30'714.2
2018-Jun-07 01:30N 45°19' E 012°23'5 9.8
2018-Jun-07 01:00N 45°21' E 012°16'4 8.4
2018-Jun-07 00:29N 45°25' E 012°16'2 4.4
2018-Jun-07 00:00N 45°27' E 012°15'1 0.1
2018-Jun-06 18:11N 45°27' E 012°14'0 0.0
2018-Jun-06 17:53N 45°27' E 012°14'0 0.0
2018-Jun-05 21:09N 45°27' E 012°14'0 2.5
2018-Jun-05 20:59N 45°27' E 012°15'2 4.6
2018-Jun-05 20:27N 45°25' E 012°16'4 8.4
2018-Jun-05 20:00N 45°21' E 012°16'5 9.9
2018-Jun-05 19:30N 45°20' E 012°22'3 6.8
2018-Jun-05 19:00N 45°20' E 012°27'1 2.9
2018-Jun-05 18:29N 45°21' E 012°28'0 0.1
2018-Jun-05 17:59N 45°21' E 012°28'0 0.0
2018-Jun-05 17:29N 45°21' E 012°28'0 0.2
2018-Jun-05 16:59N 45°21' E 012°28'0 0.0
2018-Jun-05 16:26N 45°21' E 012°28'0 0.2
2018-Jun-05 15:59N 45°21' E 012°28'0 0.2
2018-Jun-05 15:29N 45°21' E 012°28'0 0.1
2018-Jun-05 14:59N 45°21' E 012°28'0 0.0
2018-Jun-05 14:29N 45°21' E 012°28'0 0.0
2018-Jun-05 13:59N 45°21' E 012°28'0 0.0
2018-Jun-05 13:20N 45°21' E 012°28'0 0.0
2018-Jun-05 12:56N 45°21' E 012°28'0 0.0
2018-Jun-05 12:23N 45°21' E 012°28'0 0.0
2018-Jun-05 11:59N 45°21' E 012°28'0 0.1
2018-Jun-05 11:23N 45°21' E 012°28'0 0.0
2018-Jun-05 10:59N 45°21' E 012°28'0 0.0
2018-Jun-05 10:29N 45°21' E 012°28'0 0.0
2018-Jun-05 09:59N 45°21' E 012°28'0 0.0
2018-Jun-05 09:29N 45°21' E 012°28'0 0.0
2018-Jun-05 08:56N 45°21' E 012°28'0 0.2
2018-Jun-05 08:26N 45°21' E 012°28'0 0.2
2018-Jun-05 08:00N 45°21' E 012°28'3 5.7
2018-Jun-05 07:30N 45°18' E 012°29'5 9.7
2018-Jun-05 07:00N 45°15' E 012°34'611.8
2018-Jun-05 06:30N 45°12' E 012°41'611.9
2018-Jun-05 06:00N 45°08' E 012°47'611.9
2018-Jun-05 05:29N 45°02' E 012°51'612.0
2018-Jun-05 05:00N 44°57' E 012°54'611.8
2018-Jun-05 04:30N 44°52' E 012°58'611.9
2018-Jun-05 04:00N 44°46' E 013°00'711.9
2018-Jun-05 03:25N 44°39' E 013°04'410.7
2018-Jun-05 03:00N 44°35' E 013°06'510.4
2018-Jun-05 02:30N 44°30' E 013°08'510.2
2018-Jun-05 01:59N 44°26' E 013°11'510.3
2018-Jun-05 01:29N 44°21' E 013°14'  

Dump ship's entire track history